createdAt,value
2017-12-10T00:00:06.364Z,20.60
2017-12-10T00:02:35.180Z,20.60
2017-12-10T00:05:03.360Z,20.60
2017-12-10T00:07:31.450Z,20.50
2017-12-10T00:09:59.529Z,20.60
2017-12-10T00:12:27.778Z,20.60
2017-12-10T00:14:55.992Z,20.50
2017-12-10T00:17:24.142Z,20.60
2017-12-10T00:19:52.358Z,20.50
2017-12-10T00:22:20.401Z,20.50
2017-12-10T00:24:48.486Z,20.40
2017-12-10T00:27:16.642Z,20.50
2017-12-10T00:29:44.736Z,20.40
2017-12-10T00:32:12.884Z,20.30
2017-12-10T00:34:41.300Z,20.30
2017-12-10T00:37:09.395Z,20.30
2017-12-10T00:39:38.222Z,20.30
2017-12-10T00:42:06.636Z,20.30
2017-12-10T00:44:34.796Z,20.30
2017-12-10T00:47:02.987Z,20.30
2017-12-10T00:49:31.323Z,20.20
2017-12-10T00:51:59.599Z,20.10
2017-12-10T00:54:27.880Z,20.10
2017-12-10T00:56:56.227Z,20.00
2017-12-10T00:59:25.231Z,20.00
2017-12-10T01:01:54.043Z,20.00
2017-12-10T01:04:22.247Z,20.00
2017-12-10T01:06:50.555Z,19.90
2017-12-10T01:09:18.758Z,19.90
2017-12-10T01:11:47.099Z,19.80
2017-12-10T01:14:15.332Z,19.80
2017-12-10T01:16:43.447Z,19.80
2017-12-10T01:19:11.783Z,19.70
2017-12-10T01:21:39.899Z,19.70
2017-12-10T01:24:08.087Z,19.70
2017-12-10T01:26:36.339Z,19.60
2017-12-10T01:29:04.416Z,19.60
2017-12-10T01:31:32.560Z,19.60
2017-12-10T01:34:00.845Z,19.60
2017-12-10T01:36:28.923Z,19.50
2017-12-10T01:38:57.018Z,19.50
2017-12-10T01:41:25.476Z,19.50
2017-12-10T01:43:55.089Z,19.50
2017-12-10T01:46:23.369Z,19.50
2017-12-10T01:48:51.755Z,19.40
2017-12-10T01:51:20.038Z,19.40
2017-12-10T01:53:48.310Z,19.40
2017-12-10T01:56:16.706Z,19.40
2017-12-10T01:58:45.028Z,19.40
2017-12-10T02:01:13.075Z,19.40
2017-12-10T02:03:41.459Z,19.40
2017-12-10T02:06:10.651Z,19.40
2017-12-10T02:08:38.959Z,19.30
2017-12-10T02:11:07.364Z,19.40
2017-12-10T02:13:35.658Z,19.40
2017-12-10T02:16:03.963Z,19.40
2017-12-10T02:18:32.352Z,19.40
2017-12-10T02:21:01.371Z,19.30
2017-12-10T02:23:29.680Z,19.30
2017-12-10T02:25:58.107Z,19.30
2017-12-10T02:28:27.134Z,19.20
2017-12-10T02:30:55.444Z,19.10
2017-12-10T02:33:23.884Z,19.20
2017-12-10T02:35:53.326Z,19.20
2017-12-10T02:38:21.602Z,19.20
2017-12-10T02:40:50.060Z,19.20
2017-12-10T02:43:18.346Z,19.30
2017-12-10T02:45:46.790Z,19.30
2017-12-10T02:48:15.943Z,19.20
2017-12-10T02:50:44.231Z,19.20
2017-12-10T02:53:12.510Z,19.20
2017-12-10T02:55:40.909Z,19.20
2017-12-10T02:58:09.349Z,19.20
2017-12-10T03:00:37.663Z,19.20
2017-12-10T03:03:06.046Z,19.20
2017-12-10T03:05:34.342Z,19.20
2017-12-10T03:08:03.354Z,19.20
2017-12-10T03:10:32.524Z,19.30
2017-12-10T03:13:00.811Z,19.30
2017-12-10T03:15:29.091Z,19.30
2017-12-10T03:17:58.302Z,19.40
2017-12-10T03:20:36.768Z,19.50
2017-12-10T03:23:05.746Z,19.50
2017-12-10T03:25:34.030Z,19.60
2017-12-10T03:28:02.305Z,19.70
2017-12-10T03:30:30.703Z,19.90
2017-12-10T03:32:59.008Z,20.10
2017-12-10T03:35:27.291Z,20.40
2017-12-10T03:37:55.720Z,20.70
2017-12-10T03:40:24.044Z,21.00
2017-12-10T03:42:52.351Z,21.20
2017-12-10T03:45:21.442Z,21.80
2017-12-10T03:47:50.599Z,22.10
2017-12-10T03:50:18.835Z,22.10
2017-12-10T03:52:47.248Z,22.40
2017-12-10T03:55:15.447Z,22.60
2017-12-10T03:57:43.531Z,23.00
2017-12-10T04:00:12.691Z,23.30
2017-12-10T04:02:40.756Z,23.20
2017-12-10T04:05:08.972Z,23.10
2017-12-10T04:07:37.284Z,22.80
2017-12-10T04:10:05.338Z,22.30
2017-12-10T04:12:34.227Z,21.90
2017-12-10T04:15:03.408Z,22.00
2017-12-10T04:17:31.675Z,22.00
2017-12-10T04:19:59.819Z,21.90
2017-12-10T04:22:28.074Z,22.10
2017-12-10T04:24:56.179Z,22.10
2017-12-10T04:27:24.315Z,22.10
2017-12-10T04:29:53.446Z,22.30
2017-12-10T04:32:21.551Z,22.30
2017-12-10T04:34:49.692Z,22.40
2017-12-10T04:37:17.883Z,22.60
2017-12-10T04:39:46.045Z,22.60
2017-12-10T04:42:14.170Z,22.70
2017-12-10T04:44:43.228Z,22.50
2017-12-10T04:47:11.419Z,22.50
2017-12-10T04:49:39.669Z,22.80
2017-12-10T04:52:07.879Z,23.00
2017-12-10T04:54:36.007Z,23.30
2017-12-10T04:57:04.248Z,23.00
2017-12-10T04:59:33.342Z,23.10
2017-12-10T05:02:02.115Z,23.20
2017-12-10T05:04:30.343Z,23.20
2017-12-10T05:06:58.687Z,23.30
2017-12-10T05:09:27.677Z,23.50
2017-12-10T05:11:55.794Z,23.50
2017-12-10T05:14:24.051Z,23.50
2017-12-10T05:16:53.023Z,23.90
2017-12-10T05:19:21.257Z,23.80
2017-12-10T05:21:49.583Z,23.90
2017-12-10T05:24:18.487Z,24.10
2017-12-10T05:26:47.323Z,24.20
2017-12-10T05:29:15.679Z,24.20
2017-12-10T05:31:43.864Z,24.30
2017-12-10T05:34:11.974Z,24.30
2017-12-10T05:36:40.302Z,24.50
2017-12-10T05:39:08.531Z,24.60
2017-12-10T05:41:36.783Z,24.70
2017-12-10T05:44:05.102Z,24.80
2017-12-10T05:46:33.326Z,24.80
2017-12-10T05:49:01.468Z,24.80
2017-12-10T05:51:30.618Z,25.00
2017-12-10T05:53:58.770Z,25.00
2017-12-10T05:56:26.879Z,25.10
2017-12-10T05:58:55.423Z,25.40
2017-12-10T06:01:23.516Z,25.40
2017-12-10T06:03:51.786Z,25.60
2017-12-10T06:06:20.035Z,25.50
2017-12-10T06:08:48.968Z,25.80
2017-12-10T06:11:17.128Z,25.70
2017-12-10T06:13:45.427Z,25.70
2017-12-10T06:16:13.599Z,25.80
2017-12-10T06:18:41.662Z,26.00
2017-12-10T06:21:09.899Z,26.00
2017-12-10T06:23:38.780Z,26.10
2017-12-10T06:26:07.827Z,26.00
2017-12-10T06:28:36.111Z,26.00
2017-12-10T06:31:04.207Z,26.10
2017-12-10T06:33:32.364Z,26.10
2017-12-10T06:36:00.708Z,26.20
2017-12-10T06:38:28.971Z,26.40
2017-12-10T06:40:57.986Z,26.50
2017-12-10T06:43:26.231Z,26.50
2017-12-10T06:45:55.223Z,26.80
2017-12-10T06:48:24.232Z,26.70
2017-12-10T06:50:53.159Z,26.80
2017-12-10T06:53:21.358Z,26.80
2017-12-10T06:55:49.735Z,26.90
2017-12-10T06:58:18.055Z,26.90
2017-12-10T07:00:47.246Z,26.90
2017-12-10T07:03:16.175Z,27.00
2017-12-10T07:05:44.439Z,26.90
2017-12-10T07:08:12.668Z,27.00
2017-12-10T07:10:40.940Z,26.90
2017-12-10T07:13:09.181Z,27.10
2017-12-10T07:15:37.356Z,27.20
2017-12-10T07:18:05.664Z,27.20
2017-12-10T07:20:33.991Z,27.30
2017-12-10T07:23:03.003Z,27.50
2017-12-10T07:25:31.316Z,27.50
2017-12-10T07:27:59.598Z,27.70
2017-12-10T07:30:27.805Z,27.70
2017-12-10T07:32:56.724Z,27.70
2017-12-10T07:35:25.012Z,27.60
2017-12-10T07:37:53.088Z,27.60
2017-12-10T07:40:21.244Z,27.90
2017-12-10T07:42:49.423Z,27.90
2017-12-10T07:45:17.503Z,27.90
2017-12-10T07:47:45.731Z,28.00
2017-12-10T07:50:14.048Z,28.10
2017-12-10T07:52:42.249Z,28.30
2017-12-10T07:55:10.543Z,28.20
2017-12-10T07:57:38.804Z,28.10
2017-12-10T08:00:06.923Z,28.00
2017-12-10T08:02:35.232Z,28.10
2017-12-10T08:05:03.656Z,28.10
2017-12-10T08:07:32.026Z,28.20
2017-12-10T08:10:00.326Z,28.20
2017-12-10T08:12:28.727Z,28.40
2017-12-10T08:14:56.963Z,28.50
2017-12-10T08:17:25.198Z,28.70
2017-12-10T08:19:54.295Z,28.60
2017-12-10T08:22:23.130Z,28.70
2017-12-10T08:24:51.379Z,28.70
2017-12-10T08:27:19.659Z,28.80
2017-12-10T08:29:47.872Z,28.80
2017-12-10T08:32:16.016Z,28.90
2017-12-10T08:34:44.277Z,29.00
2017-12-10T08:37:12.455Z,29.10
2017-12-10T08:39:40.687Z,29.20
2017-12-10T08:42:08.929Z,29.10
2017-12-10T08:44:37.039Z,29.00
2017-12-10T08:47:05.136Z,28.80
2017-12-10T08:49:34.079Z,28.80
2017-12-10T08:52:02.351Z,28.80
2017-12-10T08:54:30.455Z,29.00
2017-12-10T08:56:58.919Z,29.00
2017-12-10T08:59:27.026Z,29.00
2017-12-10T09:01:55.158Z,29.00
2017-12-10T09:04:23.451Z,28.90
2017-12-10T09:06:51.570Z,29.10
2017-12-10T09:09:20.492Z,29.00
2017-12-10T09:11:48.940Z,29.00
2017-12-10T09:14:17.780Z,29.00
2017-12-10T09:16:46.035Z,29.00
2017-12-10T09:19:14.400Z,29.00
2017-12-10T09:21:42.711Z,29.00
2017-12-10T09:24:10.811Z,29.00
2017-12-10T09:26:39.243Z,29.10
2017-12-10T09:29:07.347Z,29.00
2017-12-10T09:31:35.538Z,28.90
2017-12-10T09:34:03.902Z,28.90
2017-12-10T09:36:31.994Z,28.80
2017-12-10T09:39:00.203Z,28.80
2017-12-10T09:41:29.156Z,28.80
2017-12-10T09:43:57.453Z,28.80
2017-12-10T09:46:25.555Z,28.80
2017-12-10T09:48:54.590Z,28.80
2017-12-10T09:51:22.828Z,28.70
2017-12-10T09:53:51.848Z,28.70
2017-12-10T09:56:20.150Z,28.70
2017-12-10T09:58:48.413Z,28.50
2017-12-10T10:01:16.508Z,28.40
2017-12-10T10:03:44.862Z,28.50
2017-12-10T10:06:12.975Z,28.30
2017-12-10T10:08:41.149Z,28.30
2017-12-10T10:11:09.423Z,28.30
2017-12-10T10:13:37.640Z,28.20
2017-12-10T10:16:05.863Z,28.10
2017-12-10T10:18:34.155Z,28.20
2017-12-10T10:21:02.312Z,28.10
2017-12-10T10:23:30.533Z,28.10
2017-12-10T10:25:59.614Z,28.10
2017-12-10T10:28:27.828Z,28.10
2017-12-10T10:30:55.946Z,28.00
2017-12-10T10:33:24.363Z,27.80
2017-12-10T10:35:53.212Z,27.80
2017-12-10T10:38:21.406Z,27.80
2017-12-10T10:40:49.732Z,27.80
2017-12-10T10:43:17.871Z,27.80
2017-12-10T10:45:46.784Z,27.80
2017-12-10T10:48:15.137Z,27.80
2017-12-10T10:50:44.074Z,27.50
2017-12-10T10:53:12.183Z,27.60
2017-12-10T10:55:40.383Z,27.50
2017-12-10T10:58:09.239Z,27.50
2017-12-10T11:00:37.477Z,27.50
2017-12-10T11:03:05.844Z,27.50
2017-12-10T11:05:34.803Z,27.50
2017-12-10T11:08:02.864Z,27.50
2017-12-10T11:10:31.150Z,27.50
2017-12-10T11:12:59.227Z,27.50
2017-12-10T11:15:27.404Z,27.50
2017-12-10T11:17:55.680Z,27.90
2017-12-10T11:20:23.829Z,28.10
2017-12-10T11:22:52.036Z,28.10
2017-12-10T11:25:20.384Z,28.00
2017-12-10T11:27:48.484Z,27.90
2017-12-10T11:30:16.597Z,27.80
2017-12-10T11:32:45.625Z,27.70
2017-12-10T11:35:13.687Z,27.70
2017-12-10T11:37:41.803Z,27.70
2017-12-10T11:40:10.104Z,27.70
2017-12-10T11:42:39.192Z,27.60
2017-12-10T11:45:07.464Z,27.60
2017-12-10T11:47:35.739Z,27.50
2017-12-10T11:50:03.967Z,27.50
2017-12-10T11:52:32.199Z,27.40
2017-12-10T11:55:00.551Z,27.40
2017-12-10T11:57:28.644Z,27.40
2017-12-10T11:59:56.840Z,27.40
2017-12-10T12:02:26.131Z,27.20
2017-12-10T12:04:54.982Z,27.20
2017-12-10T12:07:23.248Z,27.20
2017-12-10T12:09:51.530Z,27.10
2017-12-10T12:12:19.631Z,27.10
2017-12-10T12:14:47.843Z,27.10
2017-12-10T12:17:16.836Z,26.90
2017-12-10T12:19:45.710Z,26.80
2017-12-10T12:22:13.850Z,26.80
2017-12-10T12:24:42.098Z,26.90
2017-12-10T12:27:10.293Z,26.80
2017-12-10T12:29:38.492Z,26.70
2017-12-10T12:32:06.736Z,26.70
2017-12-10T12:34:35.007Z,26.70
2017-12-10T12:37:03.228Z,26.60
2017-12-10T12:39:31.458Z,26.60
2017-12-10T12:41:59.690Z,26.60
2017-12-10T12:44:27.823Z,26.50
2017-12-10T12:46:56.126Z,26.50
2017-12-10T12:49:24.231Z,26.40
2017-12-10T12:51:53.079Z,26.30
2017-12-10T12:54:21.294Z,26.30
2017-12-10T12:56:49.459Z,26.20
2017-12-10T12:59:17.589Z,26.10
2017-12-10T13:01:45.824Z,26.10
2017-12-10T13:04:14.819Z,26.00
2017-12-10T13:06:43.760Z,26.00
2017-12-10T13:09:12.051Z,26.00
2017-12-10T13:11:40.095Z,25.90
2017-12-10T13:14:08.247Z,25.90
2017-12-10T13:16:37.166Z,25.70
2017-12-10T13:19:05.343Z,25.70
2017-12-10T13:21:33.572Z,25.70
2017-12-10T13:24:01.831Z,25.70
2017-12-10T13:26:29.982Z,25.60
2017-12-10T13:28:59.099Z,25.60
2017-12-10T13:31:27.343Z,25.50
2017-12-10T13:33:55.459Z,25.50
2017-12-10T13:36:23.687Z,25.40
2017-12-10T13:38:52.088Z,25.40
2017-12-10T13:41:20.220Z,25.40
2017-12-10T13:43:50.024Z,25.30
2017-12-10T13:46:18.432Z,25.30
2017-12-10T13:48:46.512Z,25.30
2017-12-10T13:51:14.662Z,25.20
2017-12-10T13:53:43.755Z,25.20
2017-12-10T13:56:12.560Z,25.10
2017-12-10T13:58:41.407Z,25.10
2017-12-10T14:01:10.040Z,25.10
2017-12-10T14:03:38.318Z,25.10
2017-12-10T14:06:06.772Z,25.10
2017-12-10T14:08:35.204Z,25.00
2017-12-10T14:11:03.482Z,25.00
2017-12-10T14:13:31.784Z,25.00
2017-12-10T14:16:00.130Z,25.00
2017-12-10T14:18:28.232Z,25.00
2017-12-10T14:20:56.255Z,24.90
2017-12-10T14:23:25.380Z,24.90
2017-12-10T14:25:53.562Z,24.90
2017-12-10T14:28:21.948Z,24.90
2017-12-10T14:30:50.179Z,24.90
2017-12-10T14:33:19.038Z,24.90
2017-12-10T14:35:47.259Z,24.90
2017-12-10T14:38:15.603Z,24.80
2017-12-10T14:40:43.744Z,24.80
2017-12-10T14:43:11.804Z,24.80
2017-12-10T14:45:40.095Z,24.80
2017-12-10T14:48:08.339Z,24.80
2017-12-10T14:50:36.465Z,24.70
2017-12-10T14:53:05.480Z,24.80
2017-12-10T14:55:34.360Z,24.70
2017-12-10T14:58:02.622Z,24.70
2017-12-10T15:00:31.060Z,24.70
2017-12-10T15:02:59.211Z,24.70
2017-12-10T15:05:28.139Z,24.60
2017-12-10T15:07:56.490Z,24.60
2017-12-10T15:10:25.807Z,24.60
2017-12-10T15:12:54.956Z,24.60
2017-12-10T15:15:23.236Z,24.60
2017-12-10T15:17:51.479Z,24.60
2017-12-10T15:20:19.693Z,24.60
2017-12-10T15:22:48.092Z,24.60
2017-12-10T15:25:16.327Z,24.60
2017-12-10T15:27:45.411Z,24.60
2017-12-10T15:30:13.804Z,24.60
2017-12-10T15:32:41.899Z,24.60
2017-12-10T15:35:10.095Z,24.60
2017-12-10T15:37:39.263Z,24.50
2017-12-10T15:40:07.434Z,24.50
2017-12-10T15:42:35.620Z,24.60
2017-12-10T15:45:03.907Z,24.50
2017-12-10T15:47:32.138Z,24.50
2017-12-10T15:50:00.328Z,24.50
2017-12-10T15:52:28.580Z,24.50
2017-12-10T15:54:56.786Z,24.40
2017-12-10T15:57:24.883Z,24.40
2017-12-10T15:59:53.256Z,24.40
2017-12-10T16:02:21.543Z,24.50
2017-12-10T16:04:49.900Z,24.40
2017-12-10T16:07:18.356Z,24.30
2017-12-10T16:09:46.845Z,24.30
2017-12-10T16:12:15.014Z,24.30
2017-12-10T16:14:43.228Z,24.30
2017-12-10T16:17:11.327Z,24.30
2017-12-10T16:19:40.233Z,24.30
2017-12-10T16:22:09.437Z,24.30
2017-12-10T16:24:38.366Z,24.30
2017-12-10T16:27:06.472Z,24.30
2017-12-10T16:29:34.755Z,24.20
2017-12-10T16:32:02.932Z,24.20
2017-12-10T16:34:31.064Z,24.10
2017-12-10T16:36:59.387Z,24.10
2017-12-10T16:39:27.508Z,24.10
2017-12-10T16:41:55.592Z,24.10
2017-12-10T16:44:23.807Z,24.00
2017-12-10T16:46:51.940Z,24.10
2017-12-10T16:49:20.199Z,24.00
2017-12-10T16:51:48.504Z,23.90
2017-12-10T16:54:16.802Z,23.80
2017-12-10T16:56:45.076Z,23.80
2017-12-10T16:59:13.349Z,23.80
2017-12-10T17:01:41.631Z,23.80
2017-12-10T17:04:09.899Z,23.70
2017-12-10T17:06:38.263Z,23.70
2017-12-10T17:09:06.503Z,23.70
2017-12-10T17:11:35.651Z,23.60
2017-12-10T17:14:04.083Z,23.60
2017-12-10T17:16:33.115Z,23.60
2017-12-10T17:19:01.388Z,23.60
2017-12-10T17:21:29.687Z,23.60
2017-12-10T17:23:57.972Z,23.50
2017-12-10T17:26:26.130Z,23.60
2017-12-10T17:28:54.427Z,23.50
2017-12-10T17:31:22.721Z,23.60
2017-12-10T17:33:50.975Z,23.60
2017-12-10T17:36:19.410Z,23.60
2017-12-10T17:38:48.334Z,23.60
2017-12-10T17:41:16.531Z,23.60
2017-12-10T17:43:44.884Z,23.70
2017-12-10T17:46:12.979Z,23.80
2017-12-10T17:48:41.227Z,23.80
2017-12-10T17:51:09.676Z,23.80
2017-12-10T17:53:38.599Z,23.70
2017-12-10T17:56:06.875Z,23.70
2017-12-10T17:58:35.170Z,23.70
2017-12-10T18:01:03.423Z,23.80
2017-12-10T18:03:31.646Z,23.80
2017-12-10T18:06:00.045Z,23.80
2017-12-10T18:08:28.191Z,23.70
2017-12-10T18:10:56.645Z,23.60
2017-12-10T18:13:25.036Z,23.60
2017-12-10T18:15:53.267Z,23.70
2017-12-10T18:18:22.272Z,23.70
2017-12-10T18:20:51.294Z,23.80
2017-12-10T18:23:19.406Z,23.70
2017-12-10T18:25:47.600Z,23.80
2017-12-10T18:28:15.851Z,23.70
2017-12-10T18:30:44.088Z,23.70
2017-12-10T18:33:12.496Z,23.70
2017-12-10T18:35:40.664Z,23.80
2017-12-10T18:38:08.787Z,23.70
2017-12-10T18:40:37.091Z,23.80
2017-12-10T18:43:05.511Z,23.70
2017-12-10T18:45:33.811Z,23.70
2017-12-10T18:48:01.982Z,23.70
2017-12-10T18:50:30.379Z,23.70
2017-12-10T18:52:58.644Z,23.70
2017-12-10T18:55:26.918Z,23.70
2017-12-10T18:57:55.384Z,23.70
2017-12-10T19:00:23.652Z,23.70
2017-12-10T19:02:51.760Z,23.70
2017-12-10T19:05:20.085Z,23.70
2017-12-10T19:07:48.199Z,23.70
2017-12-10T19:10:16.384Z,23.60
2017-12-10T19:12:44.682Z,23.60
2017-12-10T19:15:13.788Z,23.60
2017-12-10T19:17:42.688Z,23.60
2017-12-10T19:20:11.916Z,23.60
2017-12-10T19:22:40.026Z,23.60
2017-12-10T19:25:08.188Z,23.50
2017-12-10T19:27:36.511Z,23.60
2017-12-10T19:30:05.351Z,23.50
2017-12-10T19:32:33.508Z,23.50
2017-12-10T19:35:01.840Z,23.50
2017-12-10T19:37:30.756Z,23.50
2017-12-10T19:39:58.944Z,23.50
2017-12-10T19:42:27.284Z,23.50
2017-12-10T19:44:55.443Z,23.50
2017-12-10T19:47:23.611Z,23.40
2017-12-10T19:49:51.892Z,23.40
2017-12-10T19:52:20.027Z,23.40
2017-12-10T19:54:48.289Z,23.40
2017-12-10T19:57:16.683Z,23.40
2017-12-10T19:59:44.803Z,23.30
2017-12-10T20:02:12.904Z,23.30
2017-12-10T20:04:42.088Z,23.40
2017-12-10T20:07:10.263Z,23.30
2017-12-10T20:09:38.382Z,23.40
2017-12-10T20:12:06.705Z,23.40
2017-12-10T20:14:34.858Z,23.40
2017-12-10T20:17:03.288Z,23.30
2017-12-10T20:19:32.231Z,23.20
2017-12-10T20:22:00.378Z,23.20
2017-12-10T20:24:28.539Z,23.20
2017-12-10T20:26:57.555Z,23.20
2017-12-10T20:29:25.784Z,23.20
2017-12-10T20:31:53.918Z,23.20
2017-12-10T20:34:22.190Z,23.20
2017-12-10T20:36:50.256Z,23.30
2017-12-10T20:39:18.431Z,23.20
2017-12-10T20:41:46.694Z,23.20
2017-12-10T20:44:14.867Z,23.20
2017-12-10T20:46:42.975Z,23.20
2017-12-10T20:49:11.265Z,23.20
2017-12-10T20:51:39.372Z,23.10
2017-12-10T20:54:08.312Z,23.10
2017-12-10T20:56:36.518Z,23.10
2017-12-10T20:59:04.646Z,23.10
2017-12-10T21:01:32.827Z,23.10
2017-12-10T21:04:01.019Z,23.10
2017-12-10T21:06:29.215Z,23.00
2017-12-10T21:08:57.308Z,23.00
2017-12-10T21:11:25.616Z,23.00
2017-12-10T21:13:53.811Z,23.00
2017-12-10T21:16:21.960Z,23.00
2017-12-10T21:18:51.151Z,23.00
2017-12-10T21:21:20.151Z,23.00
2017-12-10T21:23:48.959Z,23.00
2017-12-10T21:26:17.299Z,23.00
2017-12-10T21:28:45.514Z,22.90
2017-12-10T21:31:13.647Z,23.00
2017-12-10T21:33:41.976Z,23.00
2017-12-10T21:36:10.304Z,22.90
2017-12-10T21:38:38.567Z,22.90
2017-12-10T21:41:06.815Z,22.90
2017-12-10T21:43:35.000Z,22.90
2017-12-10T21:46:03.307Z,22.90
2017-12-10T21:48:31.648Z,22.90
2017-12-10T21:50:59.900Z,22.90
2017-12-10T21:53:28.900Z,22.90
2017-12-10T21:55:57.235Z,22.90
2017-12-10T21:58:25.419Z,22.90
2017-12-10T22:00:53.541Z,22.80
2017-12-10T22:03:21.820Z,22.80
2017-12-10T22:05:49.872Z,22.80
2017-12-10T22:08:17.995Z,22.70
2017-12-10T22:10:46.288Z,22.70
2017-12-10T22:13:14.492Z,22.70
2017-12-10T22:15:43.422Z,22.50
2017-12-10T22:18:11.703Z,22.50
2017-12-10T22:20:40.092Z,22.40
2017-12-10T22:23:08.360Z,22.30
2017-12-10T22:25:36.706Z,22.20
2017-12-10T22:28:05.713Z,21.80
2017-12-10T22:30:33.791Z,21.80
2017-12-10T22:33:02.179Z,21.80
2017-12-10T22:35:30.397Z,21.70
2017-12-10T22:37:58.567Z,21.70
2017-12-10T22:40:26.878Z,21.60
2017-12-10T22:42:55.799Z,21.60
2017-12-10T22:45:23.831Z,21.50
2017-12-10T22:47:52.764Z,21.40
2017-12-10T22:50:20.820Z,21.40
2017-12-10T22:52:48.863Z,21.30
2017-12-10T22:55:17.036Z,21.20
2017-12-10T22:57:45.076Z,21.20
2017-12-10T23:00:13.434Z,21.10
2017-12-10T23:02:41.570Z,21.00
2017-12-10T23:05:10.611Z,20.90
2017-12-10T23:07:38.634Z,20.90
2017-12-10T23:10:06.762Z,20.90
2017-12-10T23:12:47.453Z,20.90
2017-12-10T23:15:16.671Z,20.80
2017-12-10T23:17:45.440Z,20.70
2017-12-10T23:20:13.646Z,20.70
2017-12-10T23:22:42.671Z,20.70
2017-12-10T23:25:10.707Z,20.70
2017-12-10T23:27:38.756Z,20.60
2017-12-10T23:30:06.911Z,20.50
2017-12-10T23:32:35.079Z,20.50
2017-12-10T23:35:03.162Z,20.30
2017-12-10T23:37:31.354Z,20.40
2017-12-10T23:39:59.412Z,20.40
2017-12-10T23:42:27.532Z,20.30
2017-12-10T23:44:56.427Z,20.40
2017-12-10T23:47:25.284Z,20.20
2017-12-10T23:49:53.346Z,20.20
2017-12-10T23:52:21.539Z,20.20
2017-12-10T23:54:49.554Z,20.20
2017-12-10T23:57:17.575Z,20.20
2017-12-10T23:59:45.747Z,20.20
